createdAt,value
2022-08-08T00:00:56.575Z,20.69
2022-08-08T00:01:22.648Z,20.62
2022-08-08T00:03:31.773Z,20.58
2022-08-08T00:05:13.719Z,20.47
2022-08-08T00:06:59.150Z,20.44
2022-08-08T00:08:50.296Z,20.41
2022-08-08T00:10:30.058Z,20.41
2022-08-08T00:12:10.668Z,20.37
2022-08-08T00:14:17.005Z,20.33
2022-08-08T00:16:03.389Z,20.31
2022-08-08T00:18:02.338Z,20.30
2022-08-08T00:19:46.735Z,20.25
2022-08-08T00:21:39.612Z,20.23
2022-08-08T00:23:28.520Z,20.22
2022-08-08T00:25:23.412Z,20.21
2022-08-08T00:27:02.692Z,20.17
2022-08-08T00:28:46.086Z,20.16
2022-08-08T00:30:20.081Z,20.21
2022-08-08T00:32:20.395Z,20.22
2022-08-08T00:34:20.449Z,20.21
2022-08-08T00:36:02.283Z,20.23
2022-08-08T00:37:48.149Z,20.24
2022-08-08T00:41:07.688Z,20.28
2022-08-08T00:42:34.621Z,20.24
2022-08-08T00:44:46.561Z,20.17
2022-08-08T00:47:19.459Z,20.20
2022-08-08T00:49:27.221Z,20.15
2022-08-08T00:51:51.776Z,20.11
2022-08-08T00:53:57.096Z,20.06
2022-08-08T00:56:22.101Z,19.95
2022-08-08T00:58:30.846Z,19.95
2022-08-08T01:00:11.444Z,19.95
2022-08-08T01:02:01.539Z,19.98
2022-08-08T01:04:21.690Z,20.03
2022-08-08T01:06:47.533Z,20.08
2022-08-08T01:09:34.764Z,20.13
2022-08-08T01:11:58.614Z,20.17
2022-08-08T01:14:53.956Z,20.07
2022-08-08T01:16:50.931Z,19.92
2022-08-08T01:19:13.560Z,19.83
2022-08-08T01:22:12.308Z,19.80
2022-08-08T01:24:16.886Z,19.73
2022-08-08T01:26:24.339Z,19.66
2022-08-08T01:28:36.862Z,19.59
2022-08-08T01:30:53.434Z,19.43
2022-08-08T01:33:28.081Z,19.22
2022-08-08T01:35:47.806Z,19.14
2022-08-08T01:38:02.155Z,19.10
2022-08-08T01:40:02.550Z,19.12
2022-08-08T01:41:49.813Z,19.02
2022-08-08T01:43:38.682Z,18.91
2022-08-08T01:45:34.098Z,18.85
2022-08-08T01:48:15.068Z,18.71
2022-08-08T01:49:23.411Z,18.67
2022-08-08T01:52:27.692Z,18.75
2022-08-08T01:55:16.719Z,18.86
2022-08-08T01:56:29.779Z,18.96
2022-08-08T01:58:13.027Z,18.96
2022-08-08T02:00:03.710Z,18.97
2022-08-08T02:02:42.762Z,18.96
2022-08-08T02:04:33.823Z,19.00
2022-08-08T02:06:33.174Z,19.02
2022-08-08T02:08:34.061Z,19.03
2022-08-08T02:10:37.152Z,19.03
2022-08-08T02:12:25.569Z,19.05
2022-08-08T02:14:04.825Z,19.07
2022-08-08T02:15:48.928Z,19.10
2022-08-08T02:17:36.521Z,19.10
2022-08-08T02:19:26.793Z,19.14
2022-08-08T02:21:42.135Z,19.15
2022-08-08T02:23:31.978Z,19.17
2022-08-08T02:25:17.255Z,19.15
2022-08-08T02:26:58.185Z,19.07
2022-08-08T02:28:51.872Z,18.97
2022-08-08T02:30:39.327Z,18.91
2022-08-08T02:32:41.399Z,18.89
2022-08-08T02:34:32.641Z,18.86
2022-08-08T02:36:32.357Z,18.91
2022-08-08T02:38:39.540Z,18.95
2022-08-08T02:40:27.995Z,18.93
2022-08-08T02:42:42.058Z,18.92
2022-08-08T02:44:57.806Z,18.96
2022-08-08T02:46:56.061Z,18.97
2022-08-08T02:49:03.508Z,18.89
2022-08-08T02:51:04.133Z,18.92
2022-08-08T02:53:04.372Z,19.05
2022-08-08T02:55:19.952Z,19.16
2022-08-08T02:57:52.253Z,19.18
2022-08-08T03:00:27.110Z,19.11
2022-08-08T03:02:38.082Z,19.09
2022-08-08T03:05:03.953Z,19.14
2022-08-08T03:07:41.219Z,19.21
2022-08-08T03:10:17.945Z,19.21
2022-08-08T03:13:01.801Z,19.18
2022-08-08T03:16:03.869Z,19.14
2022-08-08T03:16:52.354Z,19.11
2022-08-08T03:18:34.390Z,19.01
2022-08-08T03:20:10.577Z,18.99
2022-08-08T03:21:58.844Z,19.02
2022-08-08T03:23:39.852Z,19.03
2022-08-08T03:25:34.028Z,19.03
2022-08-08T03:27:21.796Z,19.05
2022-08-08T03:29:18.470Z,19.13
2022-08-08T03:31:07.815Z,19.14
2022-08-08T03:33:56.756Z,19.16
2022-08-08T03:35:15.763Z,19.14
2022-08-08T03:36:49.631Z,19.13
2022-08-08T03:38:57.456Z,19.13
2022-08-08T03:40:30.621Z,18.96
2022-08-08T03:42:12.420Z,18.77
2022-08-08T03:44:02.760Z,18.61
2022-08-08T03:46:05.789Z,18.51
2022-08-08T03:47:39.651Z,18.45
2022-08-08T03:49:58.301Z,18.47
2022-08-08T03:51:19.451Z,18.54
2022-08-08T03:53:04.461Z,18.60
2022-08-08T03:54:41.684Z,18.68
2022-08-08T03:56:30.006Z,18.75
2022-08-08T03:58:35.722Z,18.87
2022-08-08T04:00:17.364Z,18.99
2022-08-08T04:02:12.796Z,19.09
2022-08-08T04:03:58.388Z,19.11
2022-08-08T04:05:48.962Z,18.99
2022-08-08T04:07:26.027Z,19.05
2022-08-08T04:09:06.774Z,19.01
2022-08-08T04:10:48.127Z,19.03
2022-08-08T04:12:35.032Z,19.22
2022-08-08T04:14:33.510Z,19.22
2022-08-08T04:16:05.498Z,19.15
2022-08-08T04:17:58.868Z,19.13
2022-08-08T04:19:36.744Z,19.12
2022-08-08T04:21:10.807Z,19.06
2022-08-08T04:22:46.043Z,19.02
2022-08-08T04:24:29.190Z,19.06
2022-08-08T04:26:09.326Z,19.03
2022-08-08T04:28:34.471Z,19.11
2022-08-08T04:29:39.015Z,19.16
2022-08-08T04:31:57.036Z,19.13
2022-08-08T04:33:23.277Z,19.11
2022-08-08T04:34:58.527Z,19.14
2022-08-08T04:36:37.711Z,19.16
2022-08-08T04:38:11.293Z,19.15
2022-08-08T04:40:06.698Z,19.15
2022-08-08T04:41:47.381Z,19.27
2022-08-08T04:43:31.710Z,19.30
2022-08-08T04:45:23.083Z,19.31
2022-08-08T04:46:58.069Z,19.42
2022-08-08T04:48:31.715Z,19.49
2022-08-08T04:50:07.970Z,19.52
2022-08-08T04:51:58.665Z,19.53
2022-08-08T04:54:36.479Z,19.50
2022-08-08T04:55:26.451Z,19.49
2022-08-08T04:57:13.408Z,19.55
2022-08-08T04:58:50.521Z,19.58
2022-08-08T05:00:25.527Z,19.65
2022-08-08T05:02:00.759Z,19.81
2022-08-08T05:04:09.670Z,19.95
2022-08-08T05:05:44.537Z,20.15
2022-08-08T05:07:20.491Z,20.29
2022-08-08T05:08:54.536Z,20.43
2022-08-08T05:10:30.551Z,20.58
2022-08-08T05:12:06.831Z,20.71
2022-08-08T05:13:57.686Z,20.77
2022-08-08T05:16:54.355Z,20.91
2022-08-08T05:17:37.325Z,21.08
2022-08-08T05:20:12.761Z,21.23
2022-08-08T05:21:19.656Z,21.49
2022-08-08T05:22:54.575Z,21.79
2022-08-08T05:24:37.310Z,22.32
2022-08-08T05:26:14.075Z,22.80
2022-08-08T05:27:48.340Z,23.34
2022-08-08T05:29:21.688Z,23.79
2022-08-08T05:31:08.594Z,24.20
2022-08-08T05:32:54.031Z,24.65
2022-08-08T05:34:36.283Z,24.82
2022-08-08T05:36:11.973Z,24.89
2022-08-08T05:38:04.765Z,25.02
2022-08-08T05:40:04.727Z,25.36
2022-08-08T05:41:54.679Z,25.67
2022-08-08T05:43:39.534Z,26.05
2022-08-08T05:45:41.439Z,26.46
2022-08-08T05:47:21.025Z,26.76
2022-08-08T05:48:56.578Z,27.09
2022-08-08T05:50:36.155Z,27.29
2022-08-08T05:52:10.424Z,27.42
2022-08-08T05:54:24.714Z,27.64
2022-08-08T05:56:10.655Z,27.74
2022-08-08T05:58:05.256Z,27.88
2022-08-08T05:59:53.634Z,27.82
2022-08-08T06:01:58.046Z,27.98
2022-08-08T06:03:37.029Z,28.24
2022-08-08T06:05:33.977Z,28.36
2022-08-08T06:07:12.177Z,28.47
2022-08-08T06:08:54.967Z,28.58
2022-08-08T06:10:34.831Z,28.94
2022-08-08T06:12:14.457Z,29.19
2022-08-08T06:13:52.558Z,29.37
2022-08-08T06:15:49.869Z,29.28
2022-08-08T06:17:32.161Z,29.17
2022-08-08T06:19:25.552Z,29.13
2022-08-08T06:21:27.895Z,29.40
2022-08-08T06:22:58.664Z,29.49
2022-08-08T06:24:40.562Z,29.62
2022-08-08T06:26:41.402Z,29.81
2022-08-08T06:28:29.429Z,30.13
2022-08-08T06:30:07.402Z,30.15
2022-08-08T06:32:11.428Z,30.12
2022-08-08T06:34:25.706Z,30.23
2022-08-08T06:36:07.431Z,30.59
2022-08-08T06:37:51.050Z,30.97
2022-08-08T06:39:34.072Z,31.06
2022-08-08T06:41:13.215Z,31.33
2022-08-08T06:42:54.652Z,31.43
2022-08-08T06:44:35.381Z,31.47
2022-08-08T06:46:12.771Z,31.31
2022-08-08T06:47:58.169Z,31.16
2022-08-08T06:49:55.580Z,31.36
2022-08-08T06:51:46.937Z,31.67
2022-08-08T06:53:39.218Z,31.81
2022-08-08T06:55:16.706Z,31.71
2022-08-08T06:56:52.895Z,31.73
2022-08-08T06:58:30.929Z,31.68
2022-08-08T07:00:12.249Z,31.94
2022-08-08T07:02:26.264Z,32.14
2022-08-08T07:04:36.964Z,32.59
2022-08-08T07:05:52.802Z,32.75
2022-08-08T07:07:51.439Z,32.79
2022-08-08T07:09:41.475Z,33.01
2022-08-08T07:11:22.939Z,33.15
2022-08-08T07:13:03.935Z,33.05
2022-08-08T07:14:51.916Z,33.01
2022-08-08T07:16:37.711Z,33.14
2022-08-08T07:18:42.112Z,33.19
2022-08-08T07:20:21.129Z,33.35
2022-08-08T07:22:12.086Z,33.44
2022-08-08T07:24:09.545Z,33.62
2022-08-08T07:26:06.785Z,33.97
2022-08-08T07:28:00.468Z,33.91
2022-08-08T07:30:00.935Z,33.32
2022-08-08T07:31:35.272Z,33.41
2022-08-08T07:33:11.947Z,33.41
2022-08-08T07:35:00.923Z,33.64
2022-08-08T07:36:48.078Z,34.00
2022-08-08T07:38:28.407Z,34.36
2022-08-08T07:40:11.549Z,34.43
2022-08-08T07:42:05.288Z,34.44
2022-08-08T07:43:42.288Z,34.42
2022-08-08T07:45:26.536Z,34.26
2022-08-08T07:47:09.208Z,34.33
2022-08-08T07:48:43.031Z,34.29
2022-08-08T07:50:21.932Z,34.16
2022-08-08T07:51:58.002Z,34.15
2022-08-08T07:54:00.708Z,34.20
2022-08-08T07:55:36.676Z,34.29
2022-08-08T07:57:24.854Z,34.02
2022-08-08T07:59:04.161Z,34.03
2022-08-08T08:00:43.279Z,33.94
2022-08-08T08:02:34.682Z,34.17
2022-08-08T08:04:16.350Z,34.28
2022-08-08T08:05:53.374Z,34.46
2022-08-08T08:07:37.848Z,34.63
2022-08-08T08:09:26.464Z,34.84
2022-08-08T08:11:04.053Z,34.91
2022-08-08T08:12:43.280Z,35.04
2022-08-08T08:14:25.110Z,34.96
2022-08-08T08:16:03.931Z,34.95
2022-08-08T08:17:48.179Z,35.19
2022-08-08T08:19:32.116Z,35.51
2022-08-08T08:21:44.196Z,35.65
2022-08-08T08:23:17.973Z,35.67
2022-08-08T08:24:51.938Z,35.40
2022-08-08T08:26:29.200Z,35.25
2022-08-08T08:28:03.353Z,34.94
2022-08-08T08:29:37.093Z,34.92
2022-08-08T08:31:12.096Z,35.27
2022-08-08T08:32:51.162Z,35.54
2022-08-08T08:34:32.486Z,35.87
2022-08-08T08:36:19.424Z,36.08
2022-08-08T08:38:16.195Z,35.86
2022-08-08T08:40:01.215Z,35.86
2022-08-08T08:41:42.317Z,36.03
2022-08-08T08:43:26.831Z,36.30
2022-08-08T08:45:21.030Z,36.43
2022-08-08T08:46:59.911Z,36.75
2022-08-08T08:48:35.749Z,36.62
2022-08-08T08:50:17.162Z,36.38
2022-08-08T08:52:04.881Z,36.06
2022-08-08T08:53:56.109Z,36.13
2022-08-08T08:55:40.479Z,35.58
2022-08-08T08:57:17.686Z,35.92
2022-08-08T08:58:55.042Z,36.13
2022-08-08T09:01:04.993Z,36.34
2022-08-08T09:02:33.643Z,36.63
2022-08-08T09:04:30.281Z,36.67
2022-08-08T09:06:05.340Z,36.63
2022-08-08T09:08:18.207Z,36.36
2022-08-08T09:09:57.525Z,36.45
2022-08-08T09:11:47.719Z,36.24
2022-08-08T09:13:40.081Z,36.56
2022-08-08T09:15:15.027Z,36.59
2022-08-08T09:17:14.256Z,36.90
2022-08-08T09:18:51.681Z,37.16
2022-08-08T09:22:01.168Z,37.14
2022-08-08T09:22:26.626Z,37.35
2022-08-08T09:24:02.389Z,37.37
2022-08-08T09:25:54.912Z,37.49
2022-08-08T09:27:57.608Z,37.73
2022-08-08T09:29:32.494Z,38.03
2022-08-08T09:31:14.054Z,37.76
2022-08-08T09:33:54.963Z,37.65
2022-08-08T09:34:52.025Z,36.98
2022-08-08T09:36:31.273Z,36.86
2022-08-08T09:38:09.620Z,36.87
2022-08-08T09:40:01.010Z,36.99
2022-08-08T09:42:14.501Z,37.10
2022-08-08T09:44:04.596Z,37.13
2022-08-08T09:46:00.724Z,37.45
2022-08-08T09:48:12.646Z,37.41
2022-08-08T09:49:42.640Z,37.56
2022-08-08T09:51:23.341Z,37.77
2022-08-08T09:53:02.233Z,37.24
2022-08-08T09:54:45.804Z,37.14
2022-08-08T09:56:24.779Z,37.00
2022-08-08T09:58:07.193Z,36.91
2022-08-08T10:00:02.044Z,36.46
2022-08-08T10:02:02.267Z,36.36
2022-08-08T10:03:40.063Z,36.03
2022-08-08T10:05:22.854Z,36.00
2022-08-08T10:06:59.177Z,35.89
2022-08-08T10:08:33.824Z,35.87
2022-08-08T10:10:09.850Z,35.67
2022-08-08T10:12:26.896Z,35.51
2022-08-08T10:13:57.273Z,35.28
2022-08-08T10:15:39.511Z,34.98
2022-08-08T10:17:57.161Z,34.88
2022-08-08T10:19:11.308Z,34.82
2022-08-08T10:20:57.895Z,34.76
2022-08-08T10:22:37.030Z,34.62
2022-08-08T10:24:34.882Z,34.53
2022-08-08T10:26:25.899Z,34.44
2022-08-08T10:28:05.358Z,34.37
2022-08-08T10:29:56.960Z,34.23
2022-08-08T10:31:51.488Z,34.09
2022-08-08T10:33:38.374Z,34.10
2022-08-08T10:36:07.137Z,34.08
2022-08-08T10:37:28.629Z,34.00
2022-08-08T10:39:07.253Z,33.91
2022-08-08T10:40:45.389Z,33.94
2022-08-08T10:42:21.163Z,33.97
2022-08-08T10:44:01.154Z,34.04
2022-08-08T10:45:55.936Z,34.10
2022-08-08T10:47:44.010Z,34.15
2022-08-08T10:49:26.797Z,34.26
2022-08-08T10:51:18.722Z,34.33
2022-08-08T10:53:03.337Z,34.45
2022-08-08T10:54:41.410Z,34.48
2022-08-08T10:56:27.373Z,34.48
2022-08-08T10:58:06.952Z,34.37
2022-08-08T10:59:40.815Z,34.31
2022-08-08T11:01:15.869Z,34.39
2022-08-08T11:02:50.415Z,34.42
2022-08-08T11:04:29.695Z,34.44
2022-08-08T11:06:14.092Z,34.61
2022-08-08T11:08:37.833Z,34.72
2022-08-08T11:09:48.114Z,34.72
2022-08-08T11:11:31.625Z,34.79
2022-08-08T11:13:28.399Z,34.71
2022-08-08T11:15:01.569Z,34.62
2022-08-08T11:16:37.348Z,34.59
2022-08-08T11:18:11.686Z,34.55
2022-08-08T11:19:52.709Z,34.55
2022-08-08T11:21:35.073Z,34.57
2022-08-08T11:23:10.077Z,34.41
2022-08-08T11:24:45.805Z,34.41
2022-08-08T11:26:27.454Z,34.31
2022-08-08T11:28:04.207Z,34.28
2022-08-08T11:29:50.934Z,34.37
2022-08-08T11:31:46.879Z,34.27
2022-08-08T11:33:51.107Z,34.28
2022-08-08T11:35:27.201Z,34.36
2022-08-08T11:37:15.464Z,34.41
2022-08-08T11:38:55.397Z,34.32
2022-08-08T11:40:31.614Z,34.35
2022-08-08T11:42:09.215Z,34.32
2022-08-08T11:43:43.798Z,34.47
2022-08-08T11:45:23.861Z,34.59
2022-08-08T11:46:58.144Z,34.70
2022-08-08T11:48:33.046Z,34.73
2022-08-08T11:50:09.988Z,34.65
2022-08-08T11:51:49.577Z,34.74
2022-08-08T11:53:26.420Z,34.82
2022-08-08T11:54:59.865Z,34.99
2022-08-08T11:56:34.565Z,35.03
2022-08-08T11:58:15.273Z,34.92
2022-08-08T11:59:58.253Z,34.74
2022-08-08T12:01:45.990Z,34.49
2022-08-08T12:03:24.885Z,34.44
2022-08-08T12:05:06.770Z,34.42
2022-08-08T12:06:42.895Z,34.33
2022-08-08T12:08:18.769Z,34.45
2022-08-08T12:09:59.552Z,34.51
2022-08-08T12:11:44.286Z,34.46
2022-08-08T12:13:38.218Z,34.54
2022-08-08T12:15:29.030Z,34.51
2022-08-08T12:17:02.637Z,34.59
2022-08-08T12:18:46.463Z,34.58
2022-08-08T12:20:19.870Z,34.71
2022-08-08T12:21:59.646Z,34.89
2022-08-08T12:23:59.532Z,34.95
2022-08-08T12:25:38.236Z,34.81
2022-08-08T12:27:18.889Z,34.63
2022-08-08T12:28:56.915Z,34.34
2022-08-08T12:30:33.939Z,34.33
2022-08-08T12:32:13.352Z,34.23
2022-08-08T12:34:02.574Z,34.40
2022-08-08T12:35:40.728Z,34.58
2022-08-08T12:37:40.471Z,34.67
2022-08-08T12:40:01.070Z,34.69
2022-08-08T12:41:35.036Z,34.77
2022-08-08T12:43:20.405Z,34.76
2022-08-08T12:45:53.694Z,34.78
2022-08-08T12:47:01.064Z,34.86
2022-08-08T12:48:38.647Z,34.83
2022-08-08T12:50:12.454Z,34.84
2022-08-08T12:51:58.989Z,34.81
2022-08-08T12:53:42.024Z,34.76
2022-08-08T12:55:29.240Z,34.64
2022-08-08T12:57:17.300Z,34.61
2022-08-08T12:58:54.250Z,34.59
2022-08-08T13:00:39.079Z,34.59
2022-08-08T13:02:28.394Z,34.67
2022-08-08T13:04:02.341Z,34.70
2022-08-08T13:06:03.631Z,34.70
2022-08-08T13:08:03.580Z,34.71
2022-08-08T13:09:43.165Z,34.65
2022-08-08T13:12:04.182Z,34.76
2022-08-08T13:13:37.123Z,34.81
2022-08-08T13:15:13.679Z,34.76
2022-08-08T13:16:49.219Z,34.76
2022-08-08T13:18:27.237Z,34.71
2022-08-08T13:20:06.383Z,34.72
2022-08-08T13:21:53.145Z,34.74
2022-08-08T13:23:46.299Z,34.71
2022-08-08T13:25:22.362Z,34.82
2022-08-08T13:27:05.139Z,34.91
2022-08-08T13:28:45.692Z,34.92
2022-08-08T13:30:26.179Z,34.87
2022-08-08T13:32:04.646Z,34.80
2022-08-08T13:33:43.477Z,34.67
2022-08-08T13:35:24.855Z,34.55
2022-08-08T13:37:03.449Z,34.40
2022-08-08T13:38:44.417Z,34.27
2022-08-08T13:40:27.559Z,34.26
2022-08-08T13:42:01.636Z,34.18
2022-08-08T13:43:36.811Z,34.11
2022-08-08T13:45:12.683Z,33.97
2022-08-08T13:46:56.663Z,33.89
2022-08-08T13:48:29.965Z,33.82
2022-08-08T13:50:43.281Z,33.71
2022-08-08T13:52:02.484Z,33.75
2022-08-08T13:53:39.182Z,33.77
2022-08-08T13:55:13.952Z,33.84
2022-08-08T13:57:11.320Z,33.96
2022-08-08T13:58:57.929Z,33.99
2022-08-08T14:00:45.198Z,34.02
2022-08-08T14:02:21.438Z,34.10
2022-08-08T14:03:55.261Z,34.19
2022-08-08T14:05:34.294Z,34.24
2022-08-08T14:07:10.771Z,34.30
2022-08-08T14:08:48.108Z,34.34
2022-08-08T14:10:33.614Z,34.41
2022-08-08T14:12:11.012Z,34.49
2022-08-08T14:13:59.449Z,34.53
2022-08-08T14:15:39.570Z,34.55
2022-08-08T14:17:22.753Z,34.62
2022-08-08T14:19:17.713Z,34.52
2022-08-08T14:21:08.043Z,34.43
2022-08-08T14:22:51.725Z,34.34
2022-08-08T14:24:33.716Z,34.35
2022-08-08T14:26:10.784Z,34.33
2022-08-08T14:27:59.681Z,34.19
2022-08-08T14:29:34.621Z,34.08
2022-08-08T14:31:23.375Z,34.03
2022-08-08T14:33:12.821Z,34.01
2022-08-08T14:34:51.863Z,33.96
2022-08-08T14:36:35.691Z,33.95
2022-08-08T14:38:34.475Z,33.96
2022-08-08T14:40:06.932Z,34.00
2022-08-08T14:41:54.024Z,34.03
2022-08-08T14:44:02.823Z,34.09
2022-08-08T14:45:25.269Z,34.13
2022-08-08T14:47:17.072Z,34.13
2022-08-08T14:48:59.288Z,34.11
2022-08-08T14:50:37.951Z,34.10
2022-08-08T14:52:13.532Z,34.17
2022-08-08T14:53:55.888Z,34.19
2022-08-08T14:55:41.326Z,34.18
2022-08-08T14:57:16.903Z,34.08
2022-08-08T14:58:50.282Z,34.00
2022-08-08T15:00:25.376Z,33.89
2022-08-08T15:01:58.692Z,33.79
2022-08-08T15:03:35.301Z,33.66
2022-08-08T15:05:19.599Z,33.53
2022-08-08T15:06:55.940Z,33.52
2022-08-08T15:08:34.452Z,33.46
2022-08-08T15:10:13.229Z,33.37
2022-08-08T15:11:53.115Z,33.31
2022-08-08T15:13:27.015Z,33.27
2022-08-08T15:15:18.760Z,33.24
2022-08-08T15:17:08.830Z,33.11
2022-08-08T15:18:51.325Z,33.12
2022-08-08T15:20:25.784Z,33.08
2022-08-08T15:21:59.254Z,33.02
2022-08-08T15:23:33.243Z,33.01
2022-08-08T15:25:17.705Z,33.00
2022-08-08T15:27:11.894Z,33.02
2022-08-08T15:28:56.011Z,32.99
2022-08-08T15:30:29.334Z,32.99
2022-08-08T15:32:20.240Z,32.98
2022-08-08T15:33:59.018Z,32.97
2022-08-08T15:35:39.133Z,32.95
2022-08-08T15:37:13.240Z,33.02
2022-08-08T15:38:49.715Z,33.04
2022-08-08T15:40:28.346Z,33.07
2022-08-08T15:42:03.730Z,33.12
2022-08-08T15:43:39.599Z,33.12
2022-08-08T15:45:14.308Z,33.12
2022-08-08T15:46:50.924Z,33.06
2022-08-08T15:48:24.571Z,32.98
2022-08-08T15:50:01.791Z,32.95
2022-08-08T15:51:35.684Z,32.91
2022-08-08T15:53:09.396Z,32.85
2022-08-08T15:54:46.262Z,32.81
2022-08-08T15:56:21.517Z,32.78
2022-08-08T15:57:54.792Z,32.76
2022-08-08T16:00:25.307Z,32.76
2022-08-08T16:01:21.098Z,32.73
2022-08-08T16:02:55.928Z,32.55
2022-08-08T16:04:31.599Z,32.69
2022-08-08T16:06:06.459Z,32.67
2022-08-08T16:07:52.297Z,32.55
2022-08-08T16:13:02.806Z,32.55
2022-08-08T16:13:15.436Z,32.60
2022-08-08T16:13:45.735Z,32.51
2022-08-08T16:15:12.644Z,32.56
2022-08-08T16:16:50.517Z,32.59
2022-08-08T16:18:23.275Z,32.60
2022-08-08T16:19:57.111Z,32.59
2022-08-08T16:21:36.969Z,32.56
2022-08-08T16:23:11.517Z,32.54
2022-08-08T16:24:44.835Z,32.49
2022-08-08T16:26:22.963Z,32.45
2022-08-08T16:28:07.154Z,32.45
2022-08-08T16:30:13.076Z,32.40
2022-08-08T16:31:50.150Z,32.33
2022-08-08T16:33:29.626Z,32.34
2022-08-08T16:35:11.986Z,32.30
2022-08-08T16:36:50.857Z,32.31
2022-08-08T16:38:26.346Z,32.30
2022-08-08T16:40:07.074Z,32.29
2022-08-08T16:41:41.410Z,32.29
2022-08-08T16:43:16.057Z,32.32
2022-08-08T16:44:54.296Z,32.14
2022-08-08T16:46:42.782Z,31.75
2022-08-08T16:48:18.683Z,31.45
2022-08-08T16:49:51.945Z,31.24
2022-08-08T16:55:01.420Z,30.84
2022-08-08T16:55:07.106Z,31.07
2022-08-08T16:55:42.564Z,30.64
2022-08-08T16:57:22.637Z,30.37
2022-08-08T16:58:57.479Z,30.23
2022-08-08T17:00:32.371Z,30.11
2022-08-08T17:02:09.682Z,29.96
2022-08-08T17:04:03.438Z,29.84
2022-08-08T17:05:45.023Z,29.81
2022-08-08T17:07:19.741Z,29.68
2022-08-08T17:08:54.450Z,29.59
2022-08-08T17:10:27.996Z,29.52
2022-08-08T17:12:02.623Z,29.51
2022-08-08T17:13:49.832Z,29.44
2022-08-08T17:15:23.836Z,29.35
2022-08-08T17:17:01.367Z,29.30
2022-08-08T17:18:34.843Z,29.23
2022-08-08T17:20:13.974Z,29.24
2022-08-08T17:21:51.474Z,29.25
2022-08-08T17:23:55.160Z,29.20
2022-08-08T17:25:20.053Z,29.20
2022-08-08T17:27:04.607Z,29.18
2022-08-08T17:28:38.871Z,29.08
2022-08-08T17:30:27.410Z,28.96
2022-08-08T17:32:04.425Z,28.88
2022-08-08T17:34:36.854Z,28.81
2022-08-08T17:35:55.980Z,28.76
2022-08-08T17:37:28.456Z,28.53
2022-08-08T17:39:45.651Z,28.52
2022-08-08T17:41:01.701Z,28.46
2022-08-08T17:42:35.545Z,28.39
2022-08-08T17:44:11.205Z,28.32
2022-08-08T17:45:45.883Z,28.26
2022-08-08T17:47:23.920Z,28.16
2022-08-08T17:49:13.285Z,28.10
2022-08-08T17:50:49.851Z,28.03
2022-08-08T17:52:24.029Z,27.96
2022-08-08T17:53:57.870Z,27.78
2022-08-08T17:56:05.012Z,27.68
2022-08-08T17:57:28.809Z,27.67
2022-08-08T17:59:08.398Z,27.68
2022-08-08T18:00:42.191Z,27.75
2022-08-08T18:02:28.652Z,27.77
2022-08-08T18:04:03.241Z,27.79
2022-08-08T18:05:49.696Z,27.84
2022-08-08T18:08:03.330Z,27.87
2022-08-08T18:09:17.484Z,27.87
2022-08-08T18:10:52.737Z,27.85
2022-08-08T18:12:27.572Z,27.81
2022-08-08T18:14:00.912Z,27.85
2022-08-08T18:15:35.403Z,27.83
2022-08-08T18:17:17.302Z,27.78
2022-08-08T18:19:02.633Z,27.72
2022-08-08T18:20:43.826Z,27.67
2022-08-08T18:22:50.419Z,27.61
2022-08-08T18:24:24.652Z,27.50
2022-08-08T18:26:01.614Z,27.46
2022-08-08T18:27:39.075Z,27.44
2022-08-08T18:29:16.564Z,27.39
2022-08-08T18:30:53.633Z,27.35
2022-08-08T18:32:26.844Z,27.25
2022-08-08T18:34:11.552Z,27.10
2022-08-08T18:35:53.629Z,27.09
2022-08-08T18:37:36.717Z,27.07
2022-08-08T18:39:28.413Z,27.05
2022-08-08T18:41:03.352Z,27.01
2022-08-08T18:42:45.777Z,26.98
2022-08-08T18:44:23.938Z,26.95
2022-08-08T18:46:55.905Z,26.95
2022-08-08T18:47:54.590Z,26.95
2022-08-08T18:49:32.260Z,26.92
2022-08-08T18:51:42.104Z,26.92
2022-08-08T18:53:08.112Z,26.92
2022-08-08T18:54:45.401Z,26.91
2022-08-08T18:56:34.980Z,26.85
2022-08-08T18:58:10.531Z,26.84
2022-08-08T18:59:43.809Z,26.77
2022-08-08T19:02:25.620Z,26.78
2022-08-08T19:03:17.965Z,26.85
2022-08-08T19:04:52.998Z,26.83
2022-08-08T19:06:27.586Z,26.70
2022-08-08T19:08:04.188Z,26.62
2022-08-08T19:09:49.254Z,26.61
2022-08-08T19:11:30.943Z,26.64
2022-08-08T19:13:20.768Z,26.57
2022-08-08T19:14:55.133Z,26.62
2022-08-08T19:16:32.085Z,26.67
2022-08-08T19:18:33.041Z,26.70
2022-08-08T19:20:02.231Z,26.74
2022-08-08T19:21:48.880Z,26.73
2022-08-08T19:23:23.083Z,26.78
2022-08-08T19:25:21.449Z,26.78
2022-08-08T19:26:52.939Z,26.73
2022-08-08T19:28:27.906Z,26.74
2022-08-08T19:30:01.470Z,26.69
2022-08-08T19:31:35.998Z,26.68
2022-08-08T19:33:09.737Z,26.66
2022-08-08T19:34:42.985Z,26.67
2022-08-08T19:36:16.767Z,26.66
2022-08-08T19:38:00.782Z,26.68
2022-08-08T19:39:35.946Z,26.66
2022-08-08T19:41:09.847Z,26.65
2022-08-08T19:42:54.490Z,26.58
2022-08-08T19:44:46.443Z,26.51
2022-08-08T19:46:24.107Z,26.43
2022-08-08T19:48:28.190Z,26.35
2022-08-08T19:50:00.956Z,26.27
2022-08-08T19:51:41.556Z,26.25
2022-08-08T19:53:50.792Z,26.22
2022-08-08T19:55:13.019Z,26.10
2022-08-08T19:56:48.738Z,26.02
2022-08-08T19:58:24.548Z,26.00
2022-08-08T20:00:11.451Z,26.02
2022-08-08T20:02:04.369Z,25.90
2022-08-08T20:04:01.518Z,25.90
2022-08-08T20:06:14.294Z,25.92
2022-08-08T20:08:29.289Z,25.98
2022-08-08T20:09:23.048Z,26.02
2022-08-08T20:10:56.564Z,26.07
2022-08-08T20:12:32.172Z,26.03
2022-08-08T20:14:31.689Z,26.14
2022-08-08T20:16:04.056Z,26.19
2022-08-08T20:17:40.367Z,26.27
2022-08-08T20:19:15.049Z,26.33
2022-08-08T20:20:50.348Z,26.34
2022-08-08T20:22:30.748Z,26.43
2022-08-08T20:24:07.842Z,26.48
2022-08-08T20:25:41.424Z,26.47
2022-08-08T20:27:20.488Z,26.48
2022-08-08T20:28:54.694Z,26.50
2022-08-08T20:30:53.469Z,26.56
2022-08-08T20:32:26.861Z,26.59
2022-08-08T20:34:27.780Z,26.50
2022-08-08T20:35:58.678Z,26.43
2022-08-08T20:37:53.393Z,26.45
2022-08-08T20:39:38.957Z,26.46
2022-08-08T20:41:22.310Z,26.46
2022-08-08T20:42:57.455Z,26.46
2022-08-08T20:44:30.869Z,26.41
2022-08-08T20:46:05.337Z,26.44
2022-08-08T20:47:43.100Z,26.41
2022-08-08T20:49:16.547Z,26.38
2022-08-08T20:50:49.839Z,26.33
2022-08-08T20:52:30.438Z,26.28
2022-08-08T20:54:13.970Z,26.19
2022-08-08T20:55:51.141Z,26.10
2022-08-08T20:57:26.896Z,26.07
2022-08-08T20:59:00.474Z,26.00
2022-08-08T21:00:39.918Z,25.86
2022-08-08T21:02:19.565Z,25.76
2022-08-08T21:04:00.108Z,25.61
2022-08-08T21:05:49.162Z,25.57
2022-08-08T21:07:47.998Z,25.47
2022-08-08T21:09:22.838Z,25.38
2022-08-08T21:10:56.353Z,25.36
2022-08-08T21:12:33.050Z,25.35
2022-08-08T21:14:07.492Z,25.33
2022-08-08T21:16:06.511Z,25.34
2022-08-08T21:17:34.868Z,25.32
2022-08-08T21:19:10.858Z,25.23
2022-08-08T21:20:50.966Z,25.22
2022-08-08T21:22:24.587Z,25.19
2022-08-08T21:24:07.994Z,25.05
2022-08-08T21:25:53.376Z,25.02
2022-08-08T21:28:05.997Z,25.08
2022-08-08T21:30:05.711Z,25.15
2022-08-08T21:31:22.776Z,25.20
2022-08-08T21:32:56.879Z,25.15
2022-08-08T21:34:32.148Z,25.25
2022-08-08T21:36:20.455Z,25.28
2022-08-08T21:37:54.960Z,25.32
2022-08-08T21:39:54.945Z,25.30
2022-08-08T21:41:38.516Z,25.28
2022-08-08T21:43:15.591Z,25.32
2022-08-08T21:44:59.123Z,25.29
2022-08-08T21:48:05.443Z,25.28
2022-08-08T21:48:30.114Z,25.21
2022-08-08T21:50:11.908Z,25.24
2022-08-08T21:54:23.308Z,25.27
2022-08-08T21:54:33.578Z,25.30
2022-08-08T21:56:20.067Z,25.28
2022-08-08T21:57:26.900Z,25.23
2022-08-08T21:59:04.081Z,25.11
2022-08-08T22:00:42.114Z,25.07
2022-08-08T22:02:15.904Z,25.04
2022-08-08T22:03:53.078Z,25.07
2022-08-08T22:05:28.035Z,25.07
2022-08-08T22:07:01.931Z,25.08
2022-08-08T22:08:37.259Z,25.08
2022-08-08T22:10:18.382Z,25.02
2022-08-08T22:12:09.317Z,25.00
2022-08-08T22:13:43.350Z,24.98
2022-08-08T22:15:25.300Z,24.92
2022-08-08T22:17:01.182Z,24.88
2022-08-08T22:18:36.156Z,24.84
2022-08-08T22:20:18.811Z,24.82
2022-08-08T22:21:58.702Z,24.79
2022-08-08T22:23:34.955Z,24.76
2022-08-08T22:25:19.833Z,24.74
2022-08-08T22:27:01.319Z,24.68
2022-08-08T22:29:05.135Z,24.62
2022-08-08T22:30:30.005Z,24.57
2022-08-08T22:32:03.938Z,24.58
2022-08-08T22:34:13.362Z,24.51
2022-08-08T22:36:05.511Z,24.46
2022-08-08T22:37:48.737Z,24.41
2022-08-08T22:39:19.853Z,24.32